Página principal
METAR-TAF:

METAR-TAF

Aeroportos :

Cambridge, Inglaterra

latitude: 52-12N, longitude: 000-11E, altura: 15 m

Observação actual do tempo

O boletim foi feito há 27 minutos, às 08:20 UTC
Vento 5 kt de nor-noroeste, variando entre oes-sudoeste e nordeste
Temperatura 17°C
Humidade 52%
Pressão 1015 hPa
Visibilidade 10 km ou mais
Poucas nuvensa uma altura de 4000 ft

METAR: EGSC 260820Z 33005KT 240V040 9999 FEW040 17/07 Q1015

Hora: 09:47 (08:47 UTC)

Previsão

O boletim foi feito há 48 minutos, às 07:59 UTC
Previsão válida de 26 às 09 UTC a 26 às 18 UTC
Vento 6 kt de nor-noroeste
Visibilidade 10 km ou mais
Nuvens dispersasa uma altura de 4500 ft

TAF: EGSC 260759Z 2609/2618 34006KT 9999 SCT045

Observações e previsões do tempo de mais de 4000 aeroportos (mensagens METAR e TAF).

As estações disponíveis são os pontos amarelos e vermelhos sobre o mapa.

Mova o rato sobre o mapa para ver o nome da estação.

Depois clique no ponto para visualizar as observações e previsões meteorológicas.

Para alterar o mapa : clique nos botões verdes com uma cruz preta para aumentar o zoom; no botão verde com uma pitada de zoom; ou nas setas verdes para mapas adjacentes.


METAR-TAF: